createdAt,value
2018-12-09T00:01:13.167Z,88.40
2018-12-09T00:03:15.795Z,88.50
2018-12-09T00:05:18.434Z,89.00
2018-12-09T00:07:20.954Z,89.40
2018-12-09T00:09:23.471Z,90.00
2018-12-09T00:11:26.149Z,90.00
2018-12-09T00:13:28.697Z,90.50
2018-12-09T00:15:31.262Z,90.40
2018-12-09T00:17:33.796Z,90.10
2018-12-09T00:19:36.349Z,90.30
2018-12-09T00:21:38.911Z,91.00
2018-12-09T00:23:41.529Z,91.20
2018-12-09T00:25:44.091Z,91.20
2018-12-09T00:27:46.627Z,91.40
2018-12-09T00:29:49.204Z,91.60
2018-12-09T00:31:51.946Z,91.40
2018-12-09T00:33:54.568Z,91.50
2018-12-09T00:35:57.106Z,91.50
2018-12-09T00:37:59.696Z,91.80
2018-12-09T00:40:02.209Z,92.70
2018-12-09T00:42:04.929Z,92.60
2018-12-09T00:44:07.450Z,92.00
2018-12-09T00:46:10.074Z,91.10
2018-12-09T00:48:12.625Z,91.40
2018-12-09T00:50:15.162Z,90.80
2018-12-09T00:52:17.746Z,90.90
2018-12-09T00:54:20.352Z,90.60
2018-12-09T00:56:22.942Z,90.70
2018-12-09T00:58:25.531Z,90.90
2018-12-09T01:00:28.259Z,91.30
2018-12-09T01:02:30.810Z,91.70
2018-12-09T01:04:33.447Z,92.30
2018-12-09T01:06:36.060Z,92.10
2018-12-09T01:08:38.574Z,91.80
2018-12-09T01:10:41.134Z,91.90
2018-12-09T01:12:43.725Z,91.80
2018-12-09T01:14:46.266Z,91.90
2018-12-09T01:16:48.839Z,91.90
2018-12-09T01:18:51.387Z,92.30
2018-12-09T01:20:53.920Z,91.90
2018-12-09T01:22:56.517Z,92.10
2018-12-09T01:24:59.093Z,91.30
2018-12-09T01:27:01.769Z,91.20
2018-12-09T01:29:04.287Z,90.40
2018-12-09T01:31:06.871Z,91.10
2018-12-09T01:33:09.392Z,90.70
2018-12-09T01:35:12.050Z,90.40
2018-12-09T01:37:14.649Z,90.50
2018-12-09T01:39:17.253Z,90.50
2018-12-09T01:41:19.954Z,90.60
2018-12-09T01:43:22.593Z,90.20
2018-12-09T01:45:25.321Z,90.20
2018-12-09T01:47:27.930Z,90.10
2018-12-09T01:49:30.512Z,89.50
2018-12-09T01:51:33.053Z,87.90
2018-12-09T01:53:47.668Z,88.20
2018-12-09T01:55:50.306Z,88.40
2018-12-09T01:57:52.989Z,88.30
2018-12-09T01:59:55.551Z,87.40
2018-12-09T02:01:58.286Z,87.40
2018-12-09T02:04:00.791Z,87.10
2018-12-09T02:06:03.330Z,88.80
2018-12-09T02:08:05.973Z,89.50
2018-12-09T02:10:08.811Z,89.80
2018-12-09T02:12:11.539Z,89.90
2018-12-09T02:14:14.270Z,88.70
2018-12-09T02:16:17.071Z,88.40
2018-12-09T02:18:19.981Z,87.90
2018-12-09T02:20:22.501Z,86.70
2018-12-09T02:22:25.107Z,85.20
2018-12-09T02:24:27.803Z,84.20
2018-12-09T02:26:30.549Z,82.30
2018-12-09T02:28:33.113Z,83.40
2018-12-09T02:30:36.079Z,84.20
2018-12-09T02:32:38.861Z,85.60
2018-12-09T02:34:45.512Z,86.00
2018-12-09T02:36:48.230Z,87.20
2018-12-09T02:38:50.847Z,86.70
2018-12-09T02:40:53.381Z,85.90
2018-12-09T02:42:56.031Z,88.10
2018-12-09T02:44:58.814Z,87.30
2018-12-09T02:47:01.360Z,88.60
2018-12-09T02:49:04.118Z,89.10
2018-12-09T02:51:06.726Z,90.20
2018-12-09T02:53:09.542Z,90.30
2018-12-09T02:55:12.128Z,90.70
2018-12-09T02:57:14.643Z,91.10
2018-12-09T02:59:17.186Z,90.20
2018-12-09T03:01:19.701Z,91.50
2018-12-09T03:03:22.591Z,92.20
2018-12-09T03:05:25.110Z,93.10
2018-12-09T03:07:27.674Z,93.50
2018-12-09T03:09:30.306Z,93.50
2018-12-09T03:11:32.843Z,93.30
2018-12-09T03:13:35.505Z,94.10
2018-12-09T03:15:38.176Z,94.30
2018-12-09T03:17:40.781Z,95.10
2018-12-09T03:19:43.377Z,94.80
2018-12-09T03:21:46.023Z,94.80
2018-12-09T03:23:48.545Z,94.40
2018-12-09T03:25:51.224Z,94.70
2018-12-09T03:27:53.819Z,94.30
2018-12-09T03:29:56.359Z,93.70
2018-12-09T03:31:59.031Z,94.00
2018-12-09T03:34:01.769Z,93.10
2018-12-09T03:36:04.533Z,93.70
2018-12-09T03:38:07.051Z,93.30
2018-12-09T03:40:09.894Z,93.10
2018-12-09T03:42:12.563Z,92.00
2018-12-09T03:44:15.209Z,92.60
2018-12-09T03:46:17.873Z,92.70
2018-12-09T03:48:20.509Z,92.00
2018-12-09T03:50:23.067Z,91.90
2018-12-09T03:52:25.602Z,92.50
2018-12-09T03:54:28.211Z,93.00
2018-12-09T03:56:30.999Z,93.50
2018-12-09T03:58:33.657Z,93.30
2018-12-09T04:00:36.289Z,92.50
2018-12-09T04:02:38.803Z,92.30
2018-12-09T04:04:41.326Z,92.40
2018-12-09T04:06:43.861Z,92.60
2018-12-09T04:08:46.926Z,92.70
2018-12-09T04:10:49.461Z,92.90
2018-12-09T04:12:52.014Z,93.20
2018-12-09T04:14:54.581Z,92.90
2018-12-09T04:16:57.286Z,92.20
2018-12-09T04:18:59.914Z,92.10
2018-12-09T04:21:03.030Z,91.80
2018-12-09T04:23:05.625Z,91.70
2018-12-09T04:25:08.258Z,91.30
2018-12-09T04:27:10.796Z,90.40
2018-12-09T04:29:13.406Z,91.20
2018-12-09T04:31:15.976Z,91.40
2018-12-09T04:33:18.662Z,91.50
2018-12-09T04:35:21.264Z,92.20
2018-12-09T04:37:23.919Z,92.50
2018-12-09T04:39:26.517Z,92.80
2018-12-09T04:41:29.165Z,92.40
2018-12-09T04:43:31.816Z,91.20
2018-12-09T04:45:34.478Z,90.60
2018-12-09T04:47:37.109Z,90.90
2018-12-09T04:49:39.650Z,90.90
2018-12-09T04:51:52.718Z,92.20
2018-12-09T04:53:55.225Z,91.80
2018-12-09T04:55:57.835Z,92.00
2018-12-09T04:58:00.565Z,91.80
2018-12-09T05:00:15.017Z,92.30
2018-12-09T05:02:17.570Z,93.00
2018-12-09T05:04:20.154Z,93.50
2018-12-09T05:06:22.799Z,92.70
2018-12-09T05:08:25.302Z,92.60
2018-12-09T05:10:27.915Z,93.40
2018-12-09T05:12:30.881Z,93.10
2018-12-09T05:14:33.434Z,92.20
2018-12-09T05:16:35.946Z,91.60
2018-12-09T05:18:38.577Z,91.50
2018-12-09T05:20:41.088Z,92.50
2018-12-09T05:22:44.045Z,92.70
2018-12-09T05:24:46.688Z,92.60
2018-12-09T05:26:49.383Z,92.10
2018-12-09T05:28:52.057Z,91.20
2018-12-09T05:30:54.633Z,91.40
2018-12-09T05:32:57.175Z,90.70
2018-12-09T05:34:59.831Z,91.90
2018-12-09T05:37:02.352Z,92.30
2018-12-09T05:39:05.458Z,91.40
2018-12-09T05:41:07.978Z,90.80
2018-12-09T05:43:10.647Z,91.00
2018-12-09T05:45:13.173Z,91.40
2018-12-09T05:47:16.220Z,91.20
2018-12-09T05:49:18.830Z,90.80
2018-12-09T05:51:21.620Z,90.60
2018-12-09T05:53:24.151Z,91.70
2018-12-09T05:55:26.663Z,91.80
2018-12-09T05:57:29.289Z,92.90
2018-12-09T05:59:32.171Z,92.60
2018-12-09T06:01:34.690Z,92.20
2018-12-09T06:03:37.221Z,92.30
2018-12-09T06:05:39.723Z,92.40
2018-12-09T06:07:42.235Z,92.60
2018-12-09T06:09:44.848Z,92.80
2018-12-09T06:11:47.475Z,92.20
2018-12-09T06:13:50.261Z,91.30
2018-12-09T06:15:52.797Z,91.90
2018-12-09T06:17:55.306Z,91.50
2018-12-09T06:19:57.929Z,92.00
2018-12-09T06:22:00.930Z,91.70
2018-12-09T06:24:03.455Z,90.90
2018-12-09T06:26:06.011Z,90.80
2018-12-09T06:28:08.558Z,91.70
2018-12-09T06:30:11.235Z,91.40
2018-12-09T06:32:13.892Z,91.90
2018-12-09T06:34:16.960Z,91.60
2018-12-09T06:36:19.585Z,91.40
2018-12-09T06:38:22.145Z,92.20
2018-12-09T06:40:24.694Z,91.10
2018-12-09T06:42:27.238Z,90.90
2018-12-09T06:44:29.811Z,92.20
2018-12-09T06:46:32.562Z,92.10
2018-12-09T06:48:35.134Z,92.20
2018-12-09T06:50:39.120Z,91.60
2018-12-09T06:52:41.865Z,91.90
2018-12-09T06:54:44.510Z,91.80
2018-12-09T06:56:47.420Z,91.80
2018-12-09T06:58:49.974Z,91.50
2018-12-09T07:00:52.531Z,91.60
2018-12-09T07:02:55.183Z,91.40
2018-12-09T07:04:57.693Z,91.30
2018-12-09T07:07:00.223Z,91.20
2018-12-09T07:09:03.239Z,91.30
2018-12-09T07:11:05.912Z,91.60
2018-12-09T07:13:08.538Z,91.40
2018-12-09T07:15:11.238Z,92.10
2018-12-09T07:17:13.771Z,92.60
2018-12-09T07:19:16.693Z,92.50
2018-12-09T07:21:19.262Z,92.70
2018-12-09T07:23:21.888Z,92.90
2018-12-09T07:25:24.625Z,93.10
2018-12-09T07:27:27.159Z,92.90
2018-12-09T07:29:29.872Z,92.90
2018-12-09T07:31:32.470Z,93.20
2018-12-09T07:33:34.938Z,92.60
2018-12-09T07:35:37.479Z,92.50
2018-12-09T07:37:40.036Z,92.40
2018-12-09T07:39:42.626Z,92.30
2018-12-09T07:41:45.612Z,92.60
2018-12-09T07:43:48.155Z,92.50
2018-12-09T07:45:50.662Z,92.00
2018-12-09T07:47:53.212Z,92.20
2018-12-09T07:49:55.734Z,93.00
2018-12-09T07:51:58.251Z,92.30
2018-12-09T07:54:00.861Z,92.30
2018-12-09T07:56:03.532Z,92.10
2018-12-09T07:58:06.069Z,91.90
2018-12-09T08:00:08.855Z,92.00
2018-12-09T08:02:11.450Z,92.30
2018-12-09T08:04:14.141Z,92.30
2018-12-09T08:06:16.630Z,91.80
2018-12-09T08:08:19.177Z,92.30
2018-12-09T08:10:21.718Z,92.70
2018-12-09T08:12:24.239Z,92.10
2018-12-09T08:14:26.811Z,91.50
2018-12-09T08:16:29.348Z,91.70
2018-12-09T08:18:31.918Z,91.90
2018-12-09T08:20:34.641Z,92.10
2018-12-09T08:22:37.205Z,92.70
2018-12-09T08:24:39.730Z,93.00
2018-12-09T08:26:42.259Z,92.70
2018-12-09T08:28:44.843Z,92.80
2018-12-09T08:30:47.416Z,92.20
2018-12-09T08:32:49.919Z,93.00
2018-12-09T08:34:52.542Z,93.30
2018-12-09T08:36:55.074Z,93.50
2018-12-09T08:38:57.711Z,93.20
2018-12-09T08:41:00.902Z,92.70
2018-12-09T08:43:03.422Z,92.90
2018-12-09T08:45:06.165Z,92.60
2018-12-09T08:47:08.833Z,92.80
2018-12-09T08:49:11.350Z,92.10
2018-12-09T08:51:14.053Z,92.10
2018-12-09T08:53:16.598Z,91.20
2018-12-09T08:55:19.168Z,90.80
2018-12-09T08:57:21.814Z,91.30
2018-12-09T08:59:24.339Z,91.10
2018-12-09T09:01:27.015Z,91.60
2018-12-09T09:03:29.623Z,91.30
2018-12-09T09:05:32.199Z,91.60
2018-12-09T09:07:34.733Z,91.50
2018-12-09T09:09:37.352Z,90.90
2018-12-09T09:11:39.922Z,90.90
2018-12-09T09:13:42.516Z,91.70
2018-12-09T09:15:45.145Z,91.60
2018-12-09T09:17:47.959Z,92.30
2018-12-09T09:19:50.468Z,92.50
2018-12-09T09:21:53.035Z,91.70
2018-12-09T09:23:55.765Z,91.30
2018-12-09T09:25:58.388Z,91.40
2018-12-09T09:28:01.042Z,91.70
2018-12-09T09:30:04.846Z,91.40
2018-12-09T09:32:07.548Z,91.90
2018-12-09T09:34:10.147Z,92.30
2018-12-09T09:36:12.747Z,92.20
2018-12-09T09:38:15.421Z,92.60
2018-12-09T09:40:18.102Z,93.10
2018-12-09T09:42:20.762Z,92.40
2018-12-09T09:44:23.451Z,91.80
2018-12-09T09:46:26.109Z,92.30
2018-12-09T09:48:28.754Z,92.10
2018-12-09T09:50:31.317Z,91.20
2018-12-09T09:52:34.006Z,91.80
2018-12-09T09:54:36.561Z,91.40
2018-12-09T09:56:39.157Z,91.60
2018-12-09T09:58:41.789Z,91.20
2018-12-09T10:00:44.321Z,91.60
2018-12-09T10:02:47.166Z,89.80
2018-12-09T10:04:49.734Z,89.40
2018-12-09T10:06:52.326Z,90.60
2018-12-09T10:08:54.821Z,91.00
2018-12-09T10:10:57.507Z,90.00
2018-12-09T10:13:00.055Z,89.70
2018-12-09T10:15:02.598Z,90.10
2018-12-09T10:17:05.160Z,90.40
2018-12-09T10:19:07.725Z,90.20
2018-12-09T10:21:10.342Z,90.50
2018-12-09T10:23:12.941Z,90.00
2018-12-09T10:25:15.538Z,90.80
2018-12-09T10:27:18.043Z,91.40
2018-12-09T10:29:20.650Z,91.00
2018-12-09T10:31:23.265Z,91.20
2018-12-09T10:33:25.906Z,90.40
2018-12-09T10:35:28.441Z,90.40
2018-12-09T10:37:31.110Z,90.00
2018-12-09T10:39:33.842Z,91.00
2018-12-09T10:41:36.344Z,91.60
2018-12-09T10:43:38.880Z,92.10
2018-12-09T10:45:41.475Z,92.00
2018-12-09T10:47:44.087Z,92.10
2018-12-09T10:49:46.691Z,91.80
2018-12-09T10:51:49.237Z,92.60
2018-12-09T10:53:51.897Z,92.00
2018-12-09T10:55:54.521Z,92.20
2018-12-09T10:57:57.082Z,92.00
2018-12-09T10:59:59.763Z,92.30
2018-12-09T11:02:07.845Z,92.10
2018-12-09T11:04:10.652Z,92.50
2018-12-09T11:06:13.570Z,91.70
2018-12-09T11:08:16.735Z,91.90
2018-12-09T11:10:19.528Z,90.90
2018-12-09T11:12:22.144Z,90.70
2018-12-09T11:14:24.709Z,90.80
2018-12-09T11:16:27.253Z,90.10
2018-12-09T11:18:29.850Z,91.10
2018-12-09T11:20:32.377Z,91.20
2018-12-09T11:22:35.008Z,91.60
2018-12-09T11:24:38.524Z,92.10
2018-12-09T11:26:41.099Z,92.20
2018-12-09T11:28:43.739Z,91.90
2018-12-09T11:30:46.274Z,91.20
2018-12-09T11:32:48.866Z,91.40
2018-12-09T11:34:51.409Z,90.70
2018-12-09T11:36:54.071Z,90.10
2018-12-09T11:38:56.726Z,91.00
2018-12-09T11:40:59.422Z,91.20
2018-12-09T11:43:01.981Z,91.80
2018-12-09T11:45:05.436Z,91.30
2018-12-09T11:47:08.076Z,91.10
2018-12-09T11:49:10.635Z,91.90
2018-12-09T11:51:13.174Z,90.30
2018-12-09T11:53:15.818Z,91.40
2018-12-09T11:55:18.389Z,91.20
2018-12-09T11:57:20.993Z,90.60
2018-12-09T11:59:23.522Z,90.60
2018-12-09T12:01:26.079Z,89.40
2018-12-09T12:03:28.632Z,89.40
2018-12-09T12:05:31.254Z,88.70
2018-12-09T12:07:33.939Z,89.00
2018-12-09T12:09:36.491Z,89.20
2018-12-09T12:11:39.250Z,87.70
2018-12-09T12:13:41.914Z,88.80
2018-12-09T12:15:44.447Z,87.40
2018-12-09T12:17:47.194Z,89.50
2018-12-09T12:19:49.793Z,88.70
2018-12-09T12:21:52.375Z,90.00
2018-12-09T12:23:54.900Z,88.50
2018-12-09T12:25:57.544Z,89.10
2018-12-09T12:28:00.133Z,89.10
2018-12-09T12:30:02.980Z,90.30
2018-12-09T12:32:05.708Z,89.20
2018-12-09T12:34:08.274Z,89.50
2018-12-09T12:36:10.825Z,89.30
2018-12-09T12:38:13.441Z,87.60
2018-12-09T12:40:16.061Z,87.90
2018-12-09T12:42:18.616Z,89.80
2018-12-09T12:44:21.264Z,90.30
2018-12-09T12:46:24.142Z,90.30
2018-12-09T12:48:26.847Z,89.40
2018-12-09T12:50:29.448Z,88.80
2018-12-09T12:52:32.203Z,90.30
2018-12-09T12:54:34.807Z,88.90
2018-12-09T12:56:37.408Z,90.70
2018-12-09T12:58:40.078Z,90.60
2018-12-09T13:00:42.653Z,91.20
2018-12-09T13:02:45.361Z,90.10
2018-12-09T13:04:47.916Z,89.80
2018-12-09T13:06:50.451Z,89.90
2018-12-09T13:08:52.998Z,89.40
2018-12-09T13:10:55.625Z,91.10
2018-12-09T13:12:58.196Z,90.60
2018-12-09T13:15:00.913Z,90.80
2018-12-09T13:17:03.522Z,90.10
2018-12-09T13:19:06.032Z,90.30
2018-12-09T13:21:08.580Z,90.00
2018-12-09T13:23:11.159Z,90.10
2018-12-09T13:25:13.665Z,88.50
2018-12-09T13:27:16.354Z,86.60
2018-12-09T13:29:18.896Z,89.60
2018-12-09T13:31:21.466Z,88.90
2018-12-09T13:33:24.090Z,89.50
2018-12-09T13:35:27.462Z,90.20
2018-12-09T13:37:30.066Z,88.50
2018-12-09T13:39:32.578Z,89.60
2018-12-09T13:41:35.131Z,89.60
2018-12-09T13:43:37.674Z,90.30
2018-12-09T13:45:40.208Z,89.50
2018-12-09T13:47:42.774Z,90.50
2018-12-09T13:49:45.282Z,90.30
2018-12-09T13:51:47.835Z,90.20
2018-12-09T13:53:50.397Z,90.30
2018-12-09T13:55:53.094Z,90.30
2018-12-09T13:57:55.892Z,90.30
2018-12-09T13:59:58.538Z,90.90
2018-12-09T14:02:01.083Z,89.60
2018-12-09T14:04:03.798Z,90.70
2018-12-09T14:06:06.313Z,91.90
2018-12-09T14:08:08.889Z,91.10
2018-12-09T14:10:11.430Z,91.70
2018-12-09T14:12:14.066Z,92.10
2018-12-09T14:14:16.675Z,92.30
2018-12-09T14:16:19.305Z,91.70
2018-12-09T14:18:22.095Z,91.00
2018-12-09T14:20:24.707Z,90.20
2018-12-09T14:22:28.134Z,90.50
2018-12-09T14:24:30.671Z,90.60
2018-12-09T14:26:33.177Z,91.20
2018-12-09T14:28:35.726Z,91.70
2018-12-09T14:30:38.263Z,91.70
2018-12-09T14:32:40.871Z,90.20
2018-12-09T14:34:43.457Z,91.10
2018-12-09T14:36:46.006Z,91.40
2018-12-09T14:38:48.659Z,91.00
2018-12-09T14:40:51.443Z,90.40
2018-12-09T14:42:54.055Z,91.70
2018-12-09T14:44:56.635Z,91.20
2018-12-09T14:46:59.228Z,90.80
2018-12-09T14:49:01.756Z,89.10
2018-12-09T14:51:04.299Z,90.30
2018-12-09T14:53:06.895Z,90.90
2018-12-09T14:55:10.464Z,91.00
2018-12-09T14:57:13.362Z,90.60
2018-12-09T14:59:15.925Z,90.90
2018-12-09T15:01:18.516Z,91.30
2018-12-09T15:03:21.086Z,91.10
2018-12-09T15:05:23.596Z,90.90
2018-12-09T15:07:26.199Z,91.10
2018-12-09T15:09:29.090Z,91.80
2018-12-09T15:11:31.741Z,91.80
2018-12-09T15:13:34.257Z,91.90
2018-12-09T15:15:36.790Z,91.30
2018-12-09T15:17:39.331Z,91.80
2018-12-09T15:19:41.874Z,91.40
2018-12-09T15:21:44.479Z,91.10
2018-12-09T15:23:47.027Z,91.00
2018-12-09T15:25:49.539Z,90.60
2018-12-09T15:27:52.089Z,90.40
2018-12-09T15:29:54.735Z,90.40
2018-12-09T15:31:57.266Z,90.70
2018-12-09T15:33:59.830Z,89.50
2018-12-09T15:36:02.364Z,90.40
2018-12-09T15:38:04.974Z,90.80
2018-12-09T15:40:07.764Z,90.50
2018-12-09T15:42:10.369Z,90.10
2018-12-09T15:44:12.890Z,90.10
2018-12-09T15:46:15.469Z,91.00
2018-12-09T15:48:17.985Z,90.30
2018-12-09T15:50:20.559Z,90.50
2018-12-09T15:52:23.153Z,89.70
2018-12-09T15:54:26.116Z,89.70
2018-12-09T15:56:28.855Z,88.50
2018-12-09T15:58:31.399Z,88.10
2018-12-09T16:00:35.088Z,88.90
2018-12-09T16:02:38.251Z,89.00
2018-12-09T16:04:40.788Z,89.10
2018-12-09T16:06:43.323Z,88.00
2018-12-09T16:08:45.864Z,87.90
2018-12-09T16:10:48.503Z,88.50
2018-12-09T16:12:51.029Z,88.40
2018-12-09T16:14:53.546Z,89.50
2018-12-09T16:16:56.184Z,90.10
2018-12-09T16:18:58.819Z,90.30
2018-12-09T16:21:01.592Z,90.90
2018-12-09T16:23:04.221Z,91.70
2018-12-09T16:25:06.838Z,92.10
2018-12-09T16:27:09.392Z,92.40
2018-12-09T16:29:12.088Z,91.60
2018-12-09T16:31:14.609Z,92.10
2018-12-09T16:33:17.209Z,91.70
2018-12-09T16:35:19.816Z,92.30
2018-12-09T16:37:22.440Z,92.30
2018-12-09T16:39:25.114Z,91.20
2018-12-09T16:41:27.687Z,92.00
2018-12-09T16:43:30.256Z,92.20
2018-12-09T16:45:32.784Z,92.40
2018-12-09T16:47:35.339Z,92.10
2018-12-09T16:49:37.914Z,92.10
2018-12-09T16:51:40.569Z,92.50
2018-12-09T16:53:43.291Z,92.20
2018-12-09T16:55:45.930Z,91.30
2018-12-09T16:57:48.485Z,91.80
2018-12-09T16:59:51.119Z,92.40
2018-12-09T17:01:53.849Z,92.80
2018-12-09T17:03:56.387Z,92.00
2018-12-09T17:05:58.979Z,92.20
2018-12-09T17:08:01.587Z,92.30
2018-12-09T17:10:05.021Z,92.00
2018-12-09T17:12:07.590Z,92.20
2018-12-09T17:14:10.154Z,92.30
2018-12-09T17:16:12.668Z,92.10
2018-12-09T17:18:15.253Z,91.80
2018-12-09T17:20:17.916Z,92.10
2018-12-09T17:22:20.507Z,91.50
2018-12-09T17:24:23.124Z,91.80
2018-12-09T17:26:25.751Z,92.20
2018-12-09T17:28:28.282Z,92.00
2018-12-09T17:30:30.917Z,91.90
2018-12-09T17:32:33.446Z,92.20
2018-12-09T17:34:36.239Z,92.70
2018-12-09T17:36:38.800Z,92.80
2018-12-09T17:38:41.380Z,92.50
2018-12-09T17:40:44.008Z,93.00
2018-12-09T17:42:46.620Z,92.70
2018-12-09T17:44:49.317Z,92.70
2018-12-09T17:46:51.904Z,92.70
2018-12-09T17:48:54.538Z,92.90
2018-12-09T17:50:57.193Z,92.90
2018-12-09T17:52:59.916Z,93.20
2018-12-09T17:55:02.550Z,92.90
2018-12-09T17:57:05.136Z,93.50
2018-12-09T17:59:07.824Z,93.40
2018-12-09T18:01:12.520Z,93.40
2018-12-09T18:03:15.147Z,94.20
2018-12-09T18:05:17.829Z,94.70
2018-12-09T18:07:20.530Z,94.10
2018-12-09T18:09:23.183Z,93.50
2018-12-09T18:11:25.712Z,93.90
2018-12-09T18:13:28.293Z,94.10
2018-12-09T18:15:30.810Z,94.30
2018-12-09T18:17:33.453Z,93.30
2018-12-09T18:19:36.022Z,93.80
2018-12-09T18:21:38.529Z,93.10
2018-12-09T18:23:41.052Z,93.80
2018-12-09T18:25:43.605Z,93.80
2018-12-09T18:27:46.163Z,93.30
2018-12-09T18:29:48.737Z,93.20
2018-12-09T18:31:51.264Z,94.00
2018-12-09T18:33:53.763Z,94.10
2018-12-09T18:35:56.389Z,94.70
2018-12-09T18:37:59.038Z,94.70
2018-12-09T18:40:01.881Z,94.40
2018-12-09T18:42:04.410Z,94.90
2018-12-09T18:44:07.078Z,95.00
2018-12-09T18:46:09.658Z,95.00
2018-12-09T18:48:12.243Z,95.30
2018-12-09T18:50:14.805Z,95.00
2018-12-09T18:52:17.350Z,95.00
2018-12-09T18:54:19.887Z,93.80
2018-12-09T18:56:22.527Z,93.80
2018-12-09T18:58:25.195Z,93.80
2018-12-09T19:00:27.717Z,93.60
2018-12-09T19:02:30.237Z,94.30
2018-12-09T19:04:32.861Z,93.50
2018-12-09T19:06:35.510Z,93.50
2018-12-09T19:08:38.118Z,94.00
2018-12-09T19:10:40.749Z,95.00
2018-12-09T19:12:43.325Z,94.70
2018-12-09T19:14:45.924Z,94.40
2018-12-09T19:16:48.485Z,94.50
2018-12-09T19:18:51.040Z,94.30
2018-12-09T19:20:53.851Z,94.30
2018-12-09T19:22:56.378Z,94.20
2018-12-09T19:24:58.978Z,94.30
2018-12-09T19:27:01.523Z,94.20
2018-12-09T19:29:04.093Z,93.90
2018-12-09T19:31:06.733Z,94.20
2018-12-09T19:33:09.258Z,94.30
2018-12-09T19:35:11.780Z,94.20
2018-12-09T19:37:14.301Z,93.80
2018-12-09T19:39:16.970Z,93.60
2018-12-09T19:41:19.538Z,93.50
2018-12-09T19:43:22.230Z,93.60
2018-12-09T19:45:24.934Z,93.50
2018-12-09T19:47:27.463Z,93.30
2018-12-09T19:49:30.069Z,93.40
2018-12-09T19:51:32.610Z,93.90
2018-12-09T19:53:35.761Z,94.10
2018-12-09T19:55:38.307Z,92.90
2018-12-09T19:57:40.836Z,93.50
2018-12-09T19:59:43.365Z,93.30
2018-12-09T20:01:45.931Z,93.30
2018-12-09T20:03:48.493Z,92.90
2018-12-09T20:05:51.087Z,92.50
2018-12-09T20:07:53.723Z,93.30
2018-12-09T20:09:56.254Z,93.20
2018-12-09T20:11:58.806Z,93.30
2018-12-09T20:14:01.339Z,94.00
2018-12-09T20:16:03.876Z,95.30
2018-12-09T20:18:06.562Z,95.90
2018-12-09T20:20:09.235Z,95.80
2018-12-09T20:22:11.774Z,95.30
2018-12-09T20:24:14.411Z,95.90
2018-12-09T20:26:16.980Z,95.30
2018-12-09T20:28:19.502Z,95.00
2018-12-09T20:30:22.090Z,95.20
2018-12-09T20:32:24.701Z,94.90
2018-12-09T20:34:27.273Z,93.70
2018-12-09T20:36:29.930Z,93.00
2018-12-09T20:38:32.484Z,92.20
2018-12-09T20:40:35.044Z,92.10
2018-12-09T20:42:37.670Z,91.90
2018-12-09T20:44:40.254Z,92.30
2018-12-09T20:46:42.910Z,91.50
2018-12-09T20:48:45.480Z,92.00
2018-12-09T20:50:48.104Z,91.00
2018-12-09T20:52:50.665Z,91.60
2018-12-09T20:54:53.205Z,91.40
2018-12-09T20:56:55.799Z,90.50
2018-12-09T20:58:58.462Z,90.10
2018-12-09T21:01:01.110Z,88.10
2018-12-09T21:03:03.667Z,88.60
2018-12-09T21:05:06.285Z,87.80
2018-12-09T21:07:08.804Z,88.70
2018-12-09T21:09:11.402Z,90.20
2018-12-09T21:11:14.024Z,90.40
2018-12-09T21:13:16.645Z,90.90
2018-12-09T21:15:19.272Z,90.70
2018-12-09T21:17:22.005Z,90.60
2018-12-09T21:19:24.632Z,90.60
2018-12-09T21:21:27.165Z,91.00
2018-12-09T21:23:29.837Z,91.70
2018-12-09T21:25:32.406Z,92.50
2018-12-09T21:27:35.214Z,92.50
2018-12-09T21:29:37.735Z,92.50
2018-12-09T21:31:40.302Z,92.70
2018-12-09T21:33:42.877Z,92.40
2018-12-09T21:35:45.402Z,91.50
2018-12-09T21:37:48.019Z,90.80
2018-12-09T21:39:50.699Z,92.20
2018-12-09T21:41:53.322Z,92.10
2018-12-09T21:43:55.857Z,92.80
2018-12-09T21:45:58.464Z,92.40
2018-12-09T21:48:00.983Z,92.20
2018-12-09T21:50:03.714Z,91.90
2018-12-09T21:52:06.381Z,91.50
2018-12-09T21:54:08.905Z,91.70
2018-12-09T21:56:11.466Z,91.90
2018-12-09T21:58:13.986Z,91.60
2018-12-09T22:02:25.299Z,92.40
2018-12-09T22:04:27.851Z,92.80
2018-12-09T22:06:30.400Z,92.50
2018-12-09T22:08:33.151Z,93.30
2018-12-09T22:10:35.697Z,93.30
2018-12-09T22:12:39.433Z,92.90
2018-12-09T22:14:41.995Z,93.10
2018-12-09T22:16:44.697Z,92.70
2018-12-09T22:18:47.344Z,92.40
2018-12-09T22:20:49.999Z,92.90
2018-12-09T22:22:52.621Z,93.40
2018-12-09T22:24:55.141Z,93.80
2018-12-09T22:26:57.714Z,92.80
2018-12-09T22:29:00.238Z,93.40
2018-12-09T22:31:02.870Z,93.00
2018-12-09T22:33:05.573Z,92.00
2018-12-09T22:35:08.170Z,91.60
2018-12-09T22:37:10.942Z,91.00
2018-12-09T22:39:13.599Z,90.60
2018-12-09T22:41:16.282Z,90.60
2018-12-09T22:43:18.835Z,91.00
2018-12-09T22:45:21.539Z,90.90
2018-12-09T22:47:24.226Z,90.50
2018-12-09T22:49:26.793Z,91.00
2018-12-09T22:51:29.422Z,91.50
2018-12-09T22:53:32.078Z,91.40
2018-12-09T22:55:34.595Z,91.70
2018-12-09T22:57:37.196Z,91.60
2018-12-09T22:59:39.732Z,91.20
2018-12-09T23:01:44.566Z,91.10
2018-12-09T23:03:47.126Z,91.00
2018-12-09T23:05:49.753Z,91.30
2018-12-09T23:07:53.239Z,91.70
2018-12-09T23:09:55.752Z,90.70
2018-12-09T23:11:58.322Z,90.00
2018-12-09T23:14:00.849Z,90.70
2018-12-09T23:16:03.484Z,90.50
2018-12-09T23:18:06.660Z,88.80
2018-12-09T23:20:09.487Z,86.90
2018-12-09T23:22:12.017Z,89.80
2018-12-09T23:24:14.586Z,89.30
2018-12-09T23:26:17.134Z,90.10
2018-12-09T23:28:19.708Z,90.20
2018-12-09T23:30:22.226Z,90.30
2018-12-09T23:32:24.766Z,90.20
2018-12-09T23:34:27.309Z,91.00
2018-12-09T23:36:30.023Z,91.30
2018-12-09T23:38:32.696Z,91.90
2018-12-09T23:40:35.217Z,91.90
2018-12-09T23:42:37.767Z,91.50
2018-12-09T23:44:40.303Z,91.30
2018-12-09T23:46:42.865Z,91.70
2018-12-09T23:48:45.413Z,91.90
2018-12-09T23:50:47.921Z,91.20
2018-12-09T23:52:50.542Z,92.10
2018-12-09T23:54:53.055Z,92.50
2018-12-09T23:56:55.578Z,92.70
2018-12-09T23:58:58.093Z,92.90
